Time;durP1;ratioP1;P1;durP2;ratioP2;P2;SDS_P1;SDS_P2;PMS_P1;PMS_P2;Temp;Humidity;BMP_temperature;BMP_pressure;BME280_temperature;BME280_humidity;BME280_pressure;Samples;Min_cycle;Max_cycle;Signal;HPM_P1;HPM_P2
2022/05/11 00:00:35;;;;;;;;;;;15.90;99.90;;;;;;2618918;46;20666;31
2022/05/11 00:03:10;;;;;;;;;;;15.80;99.90;;;;;;2622448;46;19934;31
2022/05/11 00:05:48;;;;;;;;;;;15.80;99.90;;;;;;2618265;46;19974;31
2022/05/11 00:08:28;;;;;;;;;;;15.80;99.90;;;;;;2622657;46;19941;31
2022/05/11 00:11:04;;;;;;;;;;;15.80;99.90;;;;;;2603878;54;19990;31
2022/05/11 00:13:39;;;;;;;;;;;15.80;99.90;;;;;;2622549;46;19941;31
2022/05/11 00:16:12;;;;;;;;;;;15.80;99.90;;;;;;2603897;54;20834;31
2022/05/11 00:18:49;;;;;;;;;;;15.80;99.90;;;;;;2603968;54;19983;31
2022/05/11 00:21:23;;;;;;;;;;;15.80;99.90;;;;;;2604094;54;20729;31
2022/05/11 00:24:01;;;;;;;;;;;15.80;99.90;;;;;;2603688;54;20760;31
2022/05/11 00:26:35;;;;;;;;;;;15.80;99.90;;;;;;2622383;46;19942;31
2022/05/11 00:29:09;;;;;;;;;;;15.80;99.90;;;;;;2603861;54;20050;31
2022/05/11 00:31:44;;;;;;;;;;;15.70;99.90;;;;;;2622402;46;20797;31
2022/05/11 00:34:19;;;;;;;;;;;15.70;99.90;;;;;;2604077;54;19961;31
2022/05/11 00:36:56;;;;;;;;;;;15.70;99.90;;;;;;2618720;46;19942;31
2022/05/11 00:39:33;;;;;;;;;;;15.70;99.90;;;;;;2603097;54;20021;31
2022/05/11 00:42:07;;;;;;;;;;;15.70;99.90;;;;;;2622031;46;20786;31
2022/05/11 00:44:44;;;;;;;;;;;15.60;99.90;;;;;;2603694;54;19942;31
2022/05/11 00:47:19;;;;;;;;;;;15.60;99.90;;;;;;2603798;54;20777;31
2022/05/11 00:49:52;;;;;;;;;;;15.50;99.90;;;;;;2617534;46;19943;31
2022/05/11 00:52:28;;;;;;;;;;;15.40;99.90;;;;;;2603835;54;19941;31
2022/05/11 00:55:10;;;;;;;;;;;15.40;99.90;;;;;;2622142;46;19941;31
2022/05/11 00:57:47;;;;;;;;;;;15.40;99.90;;;;;;2621926;46;20749;31
2022/05/11 01:00:21;;;;;;;;;;;15.40;99.90;;;;;;2622226;46;19961;31
2022/05/11 01:02:58;;;;;;;;;;;15.30;99.90;;;;;;2619077;46;20731;31
2022/05/11 01:05:33;;;;;;;;;;;15.30;99.90;;;;;;2615945;46;19942;31
2022/05/11 01:08:08;;;;;;;;;;;15.30;99.90;;;;;;2603707;54;20780;31
2022/05/11 01:10:46;;;;;;;;;;;15.20;99.90;;;;;;2621915;46;19993;31
2022/05/11 01:13:20;;;;;;;;;;;15.20;99.90;;;;;;2622205;46;19941;31
2022/05/11 01:15:56;;;;;;;;;;;15.20;99.90;;;;;;2603681;54;19943;31
2022/05/11 01:18:31;;;;;;;;;;;15.10;99.90;;;;;;2622268;46;19935;31
2022/05/11 01:21:07;;;;;;;;;;;15.10;99.90;;;;;;2603551;54;20017;31
2022/05/11 01:23:43;;;;;;;;;;;15.10;99.90;;;;;;2603231;54;19943;31
2022/05/11 01:26:20;;;;;;;;;;;15.10;99.90;;;;;;2602837;54;19954;31
2022/05/11 01:28:55;;;;;;;;;;;15.10;99.90;;;;;;2721060;39;20958;31
2022/05/11 01:31:30;;;;;;;;;;;15.10;99.90;;;;;;2773455;31;21283;31
2022/05/11 01:34:03;;;;;;;;;;;15.10;99.90;;;;;;2603650;54;19960;31
2022/05/11 01:36:37;;;;;;;;;;;15.10;99.90;;;;;;2603474;54;20772;31
2022/05/11 01:39:12;;;;;;;;;;;15.00;99.90;;;;;;2603088;54;19935;31
2022/05/11 01:41:53;;;;;;;;;;;15.00;99.90;;;;;;2622213;46;19941;31
2022/05/11 01:44:29;;;;;;;;;;;15.00;99.90;;;;;;2603739;54;20726;31
2022/05/11 01:47:02;;;;;;;;;;;14.90;99.90;;;;;;2721023;39;20896;31
2022/05/11 01:49:37;;;;;;;;;;;14.90;99.90;;;;;;2603694;54;19942;31
2022/05/11 01:52:12;;;;;;;;;;;14.90;99.90;;;;;;2622104;47;19942;31
2022/05/11 01:54:50;;;;;;;;;;;14.90;99.90;;;;;;2622109;47;20782;31
2022/05/11 01:57:28;;;;;;;;;;;14.90;99.90;;;;;;2622294;47;20746;31
2022/05/11 02:00:05;;;;;;;;;;;14.90;99.90;;;;;;2713103;39;22325;31
2022/05/11 02:02:45;;;;;;;;;;;14.90;99.90;;;;;;2603738;54;20745;31
2022/05/11 02:08:09;;;;;;;;;;;14.90;99.90;;;;;;2622922;46;20746;31
2022/05/11 02:10:44;;;;;;;;;;;14.80;99.90;;;;;;2622959;46;19985;31
2022/05/11 02:13:22;;;;;;;;;;;14.80;99.90;;;;;;2604394;54;20017;31
2022/05/11 02:15:58;;;;;;;;;;;14.80;99.90;;;;;;2604224;54;20787;31
2022/05/11 02:18:33;;;;;;;;;;;14.80;99.90;;;;;;2604156;54;19934;31
2022/05/11 02:21:07;;;;;;;;;;;14.80;99.90;;;;;;2619514;46;19942;31
2022/05/11 02:23:47;;;;;;;;;;;14.80;99.90;;;;;;2604283;54;20770;31
2022/05/11 02:26:24;;;;;;;;;;;14.80;99.90;;;;;;2603912;54;20012;31
2022/05/11 02:29:01;;;;;;;;;;;14.80;99.90;;;;;;2604226;54;19938;31
2022/05/11 02:31:35;;;;;;;;;;;14.70;99.90;;;;;;2604117;54;19935;31
2022/05/11 02:35:12;;;;;;;;;;;14.70;99.90;;;;;;2622956;46;19939;31
2022/05/11 02:37:06;;;;;;;;;;;14.70;99.90;;;;;;2622526;46;19943;31
2022/05/11 02:39:42;;;;;;;;;;;14.60;99.90;;;;;;2604206;54;19942;31
2022/05/11 02:42:17;;;;;;;;;;;14.60;99.90;;;;;;2622273;46;20807;31
2022/05/11 02:44:55;;;;;;;;;;;14.60;99.90;;;;;;2604207;54;20692;31
2022/05/11 02:47:30;;;;;;;;;;;14.60;99.90;;;;;;2701760;39;21232;31
2022/05/11 02:50:06;;;;;;;;;;;14.50;99.90;;;;;;2623072;46;19997;31
2022/05/11 02:52:40;;;;;;;;;;;14.50;99.90;;;;;;2604043;54;19941;31
2022/05/11 02:55:15;;;;;;;;;;;14.50;99.90;;;;;;2604183;54;19936;31
2022/05/11 02:57:52;;;;;;;;;;;14.60;99.90;;;;;;2604279;54;19939;31
2022/05/11 03:00:31;;;;;;;;;;;14.50;99.90;;;;;;2622794;46;19942;31
2022/05/11 03:03:06;;;;;;;;;;;14.50;99.90;;;;;;2622268;46;20808;31
2022/05/11 03:05:40;;;;;;;;;;;14.60;99.90;;;;;;2604195;54;19949;31
2022/05/11 03:08:16;;;;;;;;;;;14.60;99.90;;;;;;2604020;54;20708;31
2022/05/11 03:10:52;;;;;;;;;;;14.60;99.90;;;;;;2604045;54;20831;31
2022/05/11 03:13:28;;;;;;;;;;;14.60;99.90;;;;;;2603665;54;19942;31
2022/05/11 03:16:07;;;;;;;;;;;14.60;99.90;;;;;;2604273;54;20728;31
2022/05/11 03:18:43;;;;;;;;;;;14.50;99.90;;;;;;2622344;46;19935;31
2022/05/11 03:21:20;;;;;;;;;;;14.60;99.90;;;;;;2702728;39;20951;31
2022/05/11 03:23:54;;;;;;;;;;;14.60;99.90;;;;;;2604080;54;19960;31
2022/05/11 03:26:31;;;;;;;;;;;14.50;99.90;;;;;;2604159;54;20005;31
2022/05/11 03:29:07;;;;;;;;;;;14.50;99.90;;;;;;2603727;54;19940;31
2022/05/11 03:34:36;;;;;;;;;;;14.50;99.90;;;;;;2622415;46;20033;31
2022/05/11 03:34:37;;;;;;;;;;;14.40;99.90;;;;;;2603727;54;19935;31
2022/05/11 03:37:12;;;;;;;;;;;14.40;99.90;;;;;;2603846;54;20789;31
2022/05/11 03:39:49;;;;;;;;;;;14.40;99.90;;;;;;2603272;54;19973;31
2022/05/11 03:42:28;;;;;;;;;;;14.40;99.90;;;;;;2621486;46;19942;31
2022/05/11 03:45:06;;;;;;;;;;;14.40;99.90;;;;;;2603849;54;20006;31
2022/05/11 03:47:45;;;;;;;;;;;14.40;99.90;;;;;;2609923;46;19957;31
2022/05/11 03:50:22;;;;;;;;;;;14.40;99.90;;;;;;2616725;46;19942;31
2022/05/11 03:52:56;;;;;;;;;;;14.40;99.90;;;;;;2622470;46;19934;31
2022/05/11 03:55:31;;;;;;;;;;;14.40;99.90;;;;;;2702213;39;21227;31
2022/05/11 03:58:07;;;;;;;;;;;14.40;99.90;;;;;;2622578;46;19934;31
2022/05/11 04:00:41;;;;;;;;;;;14.40;99.90;;;;;;2622046;46;20828;31
2022/05/11 04:03:22;;;;;;;;;;;14.40;99.90;;;;;;2603023;54;19934;31
2022/05/11 04:05:57;;;;;;;;;;;14.50;99.90;;;;;;2603966;54;20758;31
2022/05/11 04:08:42;;;;;;;;;;;14.50;99.90;;;;;;2603859;54;19942;31
2022/05/11 04:11:19;;;;;;;;;;;14.50;99.90;;;;;;2618644;46;19973;31
2022/05/11 04:13:54;;;;;;;;;;;14.50;99.90;;;;;;2603840;54;19934;31
2022/05/11 04:16:29;;;;;;;;;;;14.50;99.90;;;;;;2603987;54;19941;31
2022/05/11 04:19:05;;;;;;;;;;;14.50;99.90;;;;;;2603840;54;19990;31
2022/05/11 04:21:43;;;;;;;;;;;14.60;99.90;;;;;;2622414;46;19942;31
2022/05/11 04:24:18;;;;;;;;;;;14.70;99.90;;;;;;2621907;46;20767;31
2022/05/11 04:26:56;;;;;;;;;;;14.80;99.90;;;;;;2603103;54;19942;31
2022/05/11 04:29:28;;;;;;;;;;;14.90;99.90;;;;;;2702664;39;20909;31
2022/05/11 04:32:03;;;;;;;;;;;15.00;99.90;;;;;;2603770;54;19934;31
2022/05/11 04:34:40;;;;;;;;;;;15.20;99.90;;;;;;2603120;54;20811;31
2022/05/11 04:37:17;;;;;;;;;;;15.40;99.90;;;;;;2619250;46;20771;31
2022/05/11 04:39:59;;;;;;;;;;;15.60;99.90;;;;;;2622362;46;19947;31
2022/05/11 04:42:36;;;;;;;;;;;15.80;99.90;;;;;;2603970;54;20006;31
2022/05/11 04:45:11;;;;;;;;;;;16.00;99.90;;;;;;2603836;54;19934;31
2022/05/11 04:47:47;;;;;;;;;;;16.10;99.90;;;;;;2622292;46;19935;31
2022/05/11 04:50:23;;;;;;;;;;;16.30;99.90;;;;;;2603806;54;19935;31
2022/05/11 04:53:00;;;;;;;;;;;16.60;99.90;;;;;;2622467;46;19946;31
2022/05/11 04:55:34;;;;;;;;;;;16.80;99.90;;;;;;2603005;54;20830;31
2022/05/11 04:58:09;;;;;;;;;;;17.10;99.90;;;;;;2602957;54;20824;31
2022/05/11 05:00:46;;;;;;;;;;;17.30;99.90;;;;;;2622443;46;19934;31
2022/05/11 05:03:21;;;;;;;;;;;17.50;99.90;;;;;;2603655;54;20009;31
2022/05/11 05:05:56;;;;;;;;;;;17.70;99.90;;;;;;2622205;46;20699;31
2022/05/11 05:08:36;;;;;;;;;;;17.90;99.90;;;;;;2603635;54;19934;31
2022/05/11 05:11:12;;;;;;;;;;;18.10;99.90;;;;;;2603755;54;19962;31
2022/05/11 05:13:51;;;;;;;;;;;18.30;99.90;;;;;;2622177;46;19949;31
2022/05/11 05:16:26;;;;;;;;;;;18.60;99.90;;;;;;2622198;46;19941;31
2022/05/11 05:19:02;;;;;;;;;;;18.80;99.90;;;;;;2622294;46;19938;31
2022/05/11 05:21:40;;;;;;;;;;;19.00;99.90;;;;;;2603668;54;20009;31
2022/05/11 05:24:17;;;;;;;;;;;19.20;99.90;;;;;;2603055;54;19942;31
2022/05/11 05:26:54;;;;;;;;;;;19.40;99.90;;;;;;2621894;46;19943;31
2022/05/11 05:32:19;;;;;;;;;;;19.70;99.90;;;;;;2603657;54;19935;31
2022/05/11 05:34:57;;;;;;;;;;;19.90;99.90;;;;;;2602943;54;19986;31
2022/05/11 05:37:32;;;;;;;;;;;20.10;99.90;;;;;;2613107;46;19955;31
2022/05/11 05:40:10;;;;;;;;;;;20.20;99.90;;;;;;2602762;54;19938;31
2022/05/11 05:42:48;;;;;;;;;;;20.20;99.90;;;;;;2616484;46;19989;31
2022/05/11 05:45:25;;;;;;;;;;;20.30;99.90;;;;;;2602786;54;19934;31
2022/05/11 05:47:59;;;;;;;;;;;20.40;99.90;;;;;;2622050;46;19941;31
2022/05/11 05:50:36;;;;;;;;;;;20.50;99.90;;;;;;2603485;54;19935;31
2022/05/11 05:53:10;;;;;;;;;;;20.70;99.90;;;;;;2622082;46;19941;31
2022/05/11 05:55:45;;;;;;;;;;;21.00;99.90;;;;;;2602964;54;19947;31
2022/05/11 05:58:22;;;;;;;;;;;21.00;99.90;;;;;;2603717;54;20041;31
2022/05/11 06:00:55;;;;;;;;;;;21.10;99.90;;;;;;2621916;47;20752;31
2022/05/11 06:03:31;;;;;;;;;;;21.60;99.90;;;;;;2603633;54;19942;31
2022/05/11 06:06:10;;;;;;;;;;;21.90;99.90;;;;;;2621979;47;19935;31
2022/05/11 06:08:44;;;;;;;;;;;22.10;99.90;;;;;;2621388;47;19935;31
2022/05/11 06:11:19;;;;;;;;;;;22.20;99.90;;;;;;2621098;47;19941;31
2022/05/11 06:13:59;;;;;;;;;;;22.30;99.90;;;;;;2602558;54;20835;31
2022/05/11 06:16:34;;;;;;;;;;;22.40;99.90;;;;;;2602371;54;19946;31
2022/05/11 06:19:10;;;;;;;;;;;22.80;99.90;;;;;;2620097;47;20758;31
2022/05/11 06:21:47;;;;;;;;;;;23.30;99.90;;;;;;2602731;54;19994;31
2022/05/11 06:24:25;;;;;;;;;;;23.70;99.90;;;;;;2622216;47;20768;31
2022/05/11 06:27:00;;;;;;;;;;;24.10;99.90;;;;;;2621998;47;19935;31
2022/05/11 06:29:40;;;;;;;;;;;24.30;99.90;;;;;;2603245;54;20781;31
2022/05/11 06:32:14;;;;;;;;;;;24.30;99.90;;;;;;2621858;47;19935;31
2022/05/11 06:34:51;;;;;;;;;;;24.50;99.90;;;;;;2622028;47;20886;31
2022/05/11 06:37:25;;;;;;;;;;;24.70;99.90;;;;;;2621869;47;19934;31
2022/05/11 06:40:00;;;;;;;;;;;24.60;99.90;;;;;;2622089;47;19941;31
2022/05/11 06:42:34;;;;;;;;;;;24.80;99.90;;;;;;2621695;47;19946;31
2022/05/11 06:45:13;;;;;;;;;;;24.80;99.90;;;;;;2603111;54;19985;31
2022/05/11 06:47:49;;;;;;;;;;;24.80;99.90;;;;;;2603647;54;19934;31
2022/05/11 06:50:24;;;;;;;;;;;24.90;99.90;;;;;;2622345;47;19935;31
2022/05/11 06:52:59;;;;;;;;;;;24.90;99.90;;;;;;2702125;39;21248;31
2022/05/11 07:01:30;;;;;;;;;;;25.10;99.90;;;;;;2604265;54;19939;31
2022/05/11 07:04:05;;;;;;;;;;;25.10;99.90;;;;;;2622839;46;20049;31
2022/05/11 07:06:41;;;;;;;;;;;25.10;99.90;;;;;;2622559;46;19941;31
2022/05/11 07:09:18;;;;;;;;;;;25.10;99.90;;;;;;2603569;54;20660;31
2022/05/11 07:14:44;;;;;;;;;;;25.20;99.90;;;;;;2622693;46;19953;31
2022/05/11 07:17:42;;;;;;;;;;;25.30;99.90;;;;;;2622793;46;19935;31
2022/05/11 07:20:21;;;;;;;;;;;25.30;99.90;;;;;;2702405;39;21279;31
2022/05/11 07:22:56;;;;;;;;;;;25.50;99.90;;;;;;2622232;46;19938;31
2022/05/11 07:25:42;;;;;;;;;;;25.70;99.90;;;;;;2604142;54;19935;31
2022/05/11 07:28:24;;;;;;;;;;;25.90;99.90;;;;;;2622653;46;20719;31
2022/05/11 07:30:58;;;;;;;;;;;26.00;99.60;;;;;;2603632;54;19935;31
2022/05/11 07:33:36;;;;;;;;;;;26.10;99.20;;;;;;2773843;31;21258;31
2022/05/11 07:36:16;;;;;;;;;;;26.00;98.60;;;;;;2604209;54;20001;31
2022/05/11 07:38:52;;;;;;;;;;;26.10;98.40;;;;;;2622686;46;19942;31
2022/05/11 07:41:30;;;;;;;;;;;26.20;98.70;;;;;;2603731;54;19935;31
2022/05/11 07:44:08;;;;;;;;;;;26.30;98.90;;;;;;2622570;46;19939;31
2022/05/11 07:46:44;;;;;;;;;;;26.50;98.50;;;;;;2622511;46;19938;31
2022/05/11 07:49:20;;;;;;;;;;;26.60;98.60;;;;;;2604039;54;20743;31
2022/05/11 07:51:59;;;;;;;;;;;26.70;98.50;;;;;;2617123;46;20877;31
2022/05/11 07:54:38;;;;;;;;;;;26.60;98.30;;;;;;2604293;54;20046;31
2022/05/11 08:00:02;;;;;;;;;;;27.00;98.20;;;;;;2603496;54;19950;31
2022/05/11 08:02:39;;;;;;;;;;;27.60;98.60;;;;;;2622129;46;19941;31
2022/05/11 08:05:16;;;;;;;;;;;28.00;97.50;;;;;;2604004;54;19942;31
2022/05/11 08:07:55;;;;;;;;;;;28.30;97.30;;;;;;2603962;54;19946;31
2022/05/11 08:10:30;;;;;;;;;;;28.80;96.80;;;;;;2603674;54;19934;31
2022/05/11 08:13:08;;;;;;;;;;;29.10;94.80;;;;;;2622752;46;19934;31
2022/05/11 08:15:47;;;;;;;;;;;29.30;94.90;;;;;;2622529;46;19951;31
2022/05/11 08:18:22;;;;;;;;;;;29.50;94.20;;;;;;2603861;54;19934;31
2022/05/11 08:21:04;;;;;;;;;;;29.70;94.50;;;;;;2604145;54;20002;31
2022/05/11 08:23:43;;;;;;;;;;;29.70;93.60;;;;;;2622504;46;20849;31
2022/05/11 08:26:17;;;;;;;;;;;29.90;92.60;;;;;;2603299;54;19935;31
2022/05/11 08:28:52;;;;;;;;;;;30.00;92.00;;;;;;2603007;54;20766;31
2022/05/11 08:34:16;;;;;;;;;;;30.20;92.10;;;;;;2622112;46;19935;31
2022/05/11 08:36:52;;;;;;;;;;;30.50;92.00;;;;;;2604134;54;19942;31
2022/05/11 08:39:32;;;;;;;;;;;30.60;92.00;;;;;;2603761;54;20010;31
2022/05/11 08:42:10;;;;;;;;;;;30.70;91.50;;;;;;2603889;54;19950;31
2022/05/11 08:44:46;;;;;;;;;;;30.70;91.90;;;;;;2603800;54;19938;31
2022/05/11 08:47:25;;;;;;;;;;;30.90;90.30;;;;;;2622353;46;19935;31
2022/05/11 08:50:04;;;;;;;;;;;31.00;89.50;;;;;;2622337;46;20736;31
2022/05/11 08:52:40;;;;;;;;;;;31.00;90.40;;;;;;2622398;46;20743;31
2022/05/11 08:55:20;;;;;;;;;;;31.20;89.10;;;;;;2604023;54;19939;31
2022/05/11 08:58:04;;;;;;;;;;;31.40;89.00;;;;;;2603828;54;19934;31
2022/05/11 09:00:39;;;;;;;;;;;31.50;87.90;;;;;;2603723;54;20705;31
2022/05/11 09:03:14;;;;;;;;;;;31.60;87.70;;;;;;2603655;54;19953;31
2022/05/11 09:05:50;;;;;;;;;;;31.70;87.40;;;;;;2622258;46;20816;31
2022/05/11 09:08:28;;;;;;;;;;;31.80;87.50;;;;;;2603668;54;20025;31
2022/05/11 09:11:06;;;;;;;;;;;31.80;86.10;;;;;;2621979;46;19934;31
2022/05/11 09:13:42;;;;;;;;;;;31.90;86.90;;;;;;2603789;54;19941;31
2022/05/11 09:16:23;;;;;;;;;;;31.80;85.10;;;;;;2603613;54;20756;31
2022/05/11 09:19:01;;;;;;;;;;;32.00;86.50;;;;;;2603777;54;20791;31
2022/05/11 09:21:41;;;;;;;;;;;32.00;84.50;;;;;;2607368;46;20794;31
2022/05/11 09:24:25;;;;;;;;;;;32.10;83.70;;;;;;2622543;46;19939;31
2022/05/11 09:29:39;;;;;;;;;;;32.30;82.30;;;;;;2603554;54;19961;31
2022/05/11 09:32:29;;;;;;;;;;;32.30;82.00;;;;;;2622071;46;19942;31
2022/05/11 09:35:25;;;;;;;;;;;32.40;82.20;;;;;;2621829;46;19943;31
2022/05/11 09:38:28;;;;;;;;;;;32.40;82.90;;;;;;2603470;54;20756;31
2022/05/11 09:41:05;;;;;;;;;;;32.40;81.40;;;;;;2603406;54;19990;31
2022/05/11 09:43:40;;;;;;;;;;;32.40;82.30;;;;;;2622281;46;19934;31
2022/05/11 09:46:31;;;;;;;;;;;32.30;80.70;;;;;;2622159;46;19934;31
2022/05/11 09:49:09;;;;;;;;;;;32.30;81.00;;;;;;2603613;54;20756;31
2022/05/11 09:51:45;;;;;;;;;;;32.30;79.90;;;;;;2622187;46;20771;31
2022/05/11 09:54:23;;;;;;;;;;;32.30;79.60;;;;;;2603524;54;19938;31
2022/05/11 09:57:00;;;;;;;;;;;32.50;80.40;;;;;;2603680;54;19940;31
2022/05/11 09:59:37;;;;;;;;;;;32.70;80.70;;;;;;2603708;54;19942;31
2022/05/11 10:02:21;;;;;;;;;;;32.40;79.00;;;;;;2621801;47;19935;31
2022/05/11 10:05:04;;;;;;;;;;;32.20;78.70;;;;;;2622187;47;19935;31
2022/05/11 10:07:44;;;;;;;;;;;32.10;80.10;;;;;;2621935;47;19941;31
2022/05/11 10:10:20;;;;;;;;;;;32.00;79.70;;;;;;2602617;54;20753;31
2022/05/11 10:12:55;;;;;;;;;;;31.70;77.60;;;;;;2603266;54;19947;31
2022/05/11 10:24:15;;;;;;;;;;;31.60;77.20;;;;;;2603416;54;20694;31
2022/05/11 10:26:49;;;;;;;;;;;31.60;77.80;;;;;;2604125;54;19938;31
2022/05/11 10:29:25;;;;;;;;;;;31.50;77.60;;;;;;2604295;54;19934;31
2022/05/11 10:32:01;;;;;;;;;;;31.50;78.30;;;;;;2604490;54;19934;31
2022/05/11 10:34:43;;;;;;;;;;;31.30;77.70;;;;;;2622700;46;19935;31
2022/05/11 10:37:19;;;;;;;;;;;31.20;77.40;;;;;;2623233;46;19957;31
2022/05/11 10:39:58;;;;;;;;;;;31.10;78.70;;;;;;2603396;54;20061;31
2022/05/11 10:42:35;;;;;;;;;;;31.10;79.70;;;;;;2622815;46;20088;31
2022/05/11 10:45:12;;;;;;;;;;;31.00;79.10;;;;;;2603657;54;19981;31
2022/05/11 10:48:20;;;;;;;;;;;31.00;80.10;;;;;;2622565;46;19993;31
2022/05/11 10:50:59;;;;;;;;;;;30.80;77.70;;;;;;2603954;54;21102;31
2022/05/11 10:53:36;;;;;;;;;;;30.60;78.10;;;;;;2604132;54;19941;31
2022/05/11 10:56:14;;;;;;;;;;;30.50;78.10;;;;;;2603348;54;20746;31
2022/05/11 10:58:56;;;;;;;;;;;30.30;78.20;;;;;;2614280;46;20849;31
2022/05/11 11:01:31;;;;;;;;;;;30.30;79.10;;;;;;2606083;46;19935;31
2022/05/11 11:04:20;;;;;;;;;;;30.10;80.00;;;;;;2604224;54;19989;31
2022/05/11 11:07:17;;;;;;;;;;;30.00;79.50;;;;;;2604077;54;19935;31
2022/05/11 11:09:57;;;;;;;;;;;29.90;80.50;;;;;;2622322;46;19934;31
2022/05/11 11:12:36;;;;;;;;;;;29.90;80.30;;;;;;2604072;54;20024;31
2022/05/11 11:15:14;;;;;;;;;;;29.90;80.90;;;;;;2603894;54;20771;31
2022/05/11 11:17:50;;;;;;;;;;;29.90;81.50;;;;;;2604085;54;19994;31
2022/05/11 11:20:26;;;;;;;;;;;29.90;80.40;;;;;;2604364;54;19969;31
2022/05/11 11:23:07;;;;;;;;;;;29.80;80.10;;;;;;2604142;54;20787;31
2022/05/11 11:25:56;;;;;;;;;;;29.70;80.10;;;;;;2604169;54;19942;31
2022/05/11 11:28:33;;;;;;;;;;;29.70;80.50;;;;;;2603339;54;20799;31
2022/05/11 11:31:20;;;;;;;;;;;29.70;81.50;;;;;;2604454;54;21079;31
2022/05/11 11:34:11;;;;;;;;;;;29.70;80.80;;;;;;2622550;46;20768;31
2022/05/11 11:36:50;;;;;;;;;;;29.70;82.60;;;;;;2613790;46;19942;31
2022/05/11 11:39:40;;;;;;;;;;;29.70;83.50;;;;;;2622567;46;20691;31
2022/05/11 11:42:22;;;;;;;;;;;30.00;81.80;;;;;;2604066;54;20054;31
2022/05/11 11:44:57;;;;;;;;;;;30.10;83.00;;;;;;2622958;46;19961;31
2022/05/11 11:47:36;;;;;;;;;;;30.10;79.90;;;;;;2603901;54;19935;31
2022/05/11 11:50:14;;;;;;;;;;;30.10;80.80;;;;;;2603938;54;20735;31
2022/05/11 11:52:55;;;;;;;;;;;30.00;80.60;;;;;;2702634;39;20951;31
2022/05/11 11:55:32;;;;;;;;;;;30.00;79.90;;;;;;2603930;54;20802;31
2022/05/11 11:58:19;;;;;;;;;;;30.00;80.60;;;;;;2604015;54;19939;31
2022/05/11 12:01:06;;;;;;;;;;;29.90;79.10;;;;;;2604147;54;19941;31
2022/05/11 12:03:41;;;;;;;;;;;29.80;79.90;;;;;;2603838;54;20802;31
2022/05/11 12:17:32;;;;;;;;;;;29.40;80.00;;;;;;2622103;46;19939;31
2022/05/11 12:20:09;;;;;;;;;;;29.40;80.80;;;;;;2603776;54;19941;31
2022/05/11 12:25:36;;;;;;;;;;;29.70;80.40;;;;;;2603922;54;20871;31
2022/05/11 12:28:21;;;;;;;;;;;29.80;80.90;;;;;;2603755;54;19934;31
2022/05/11 12:30:58;;;;;;;;;;;29.90;80.80;;;;;;2622422;46;19935;31
2022/05/11 12:33:35;;;;;;;;;;;30.00;79.00;;;;;;2603212;54;20753;31
2022/05/11 12:36:10;;;;;;;;;;;30.00;79.30;;;;;;2603289;54;19935;31
2022/05/11 12:38:45;;;;;;;;;;;30.00;80.40;;;;;;2603203;54;19954;31
2022/05/11 12:41:23;;;;;;;;;;;30.00;80.30;;;;;;2603935;54;20797;31
2022/05/11 12:43:59;;;;;;;;;;;30.00;81.20;;;;;;2603828;54;20774;31
2022/05/11 12:46:38;;;;;;;;;;;30.00;80.40;;;;;;2603410;54;19935;31
2022/05/11 12:49:15;;;;;;;;;;;30.10;80.20;;;;;;2603884;54;19957;31
2022/05/11 12:51:52;;;;;;;;;;;30.10;78.30;;;;;;2712500;39;20374;31
2022/05/11 12:54:28;;;;;;;;;;;30.10;78.00;;;;;;2622233;46;19947;31
2022/05/11 12:57:05;;;;;;;;;;;30.10;79.00;;;;;;2603581;54;20002;31
2022/05/11 12:59:43;;;;;;;;;;;30.10;79.10;;;;;;2603875;54;19942;31
2022/05/11 13:02:21;;;;;;;;;;;29.90;78.10;;;;;;2603109;54;19942;31
2022/05/11 13:04:59;;;;;;;;;;;29.90;77.30;;;;;;2603932;54;20799;31
2022/05/11 13:07:37;;;;;;;;;;;29.80;78.70;;;;;;2620096;46;19942;31
2022/05/11 13:10:13;;;;;;;;;;;29.80;77.90;;;;;;2622008;46;19934;31
2022/05/11 13:12:49;;;;;;;;;;;29.80;77.80;;;;;;2603674;54;20010;31
2022/05/11 13:15:34;;;;;;;;;;;29.80;78.20;;;;;;2603779;54;20007;31
2022/05/11 13:18:15;;;;;;;;;;;29.70;78.40;;;;;;2622339;46;20004;31
2022/05/11 13:20:52;;;;;;;;;;;29.70;78.70;;;;;;2603766;54;20749;31
2022/05/11 13:23:31;;;;;;;;;;;29.50;77.30;;;;;;2621981;46;19934;31
2022/05/11 13:26:07;;;;;;;;;;;29.50;78.70;;;;;;2603777;54;20018;31
2022/05/11 13:28:56;;;;;;;;;;;29.50;77.40;;;;;;2603402;54;19946;31
2022/05/11 13:31:34;;;;;;;;;;;29.50;78.60;;;;;;2622104;46;19934;31
2022/05/11 13:34:31;;;;;;;;;;;29.50;78.70;;;;;;2622275;46;19961;31
2022/05/11 13:37:06;;;;;;;;;;;29.50;78.90;;;;;;2603557;54;20800;31
2022/05/11 13:39:41;;;;;;;;;;;29.50;78.50;;;;;;2622016;46;19935;31
2022/05/11 13:42:17;;;;;;;;;;;29.50;79.70;;;;;;2621905;46;19998;31
2022/05/11 13:44:53;;;;;;;;;;;29.60;77.80;;;;;;2603766;54;20026;31
2022/05/11 13:50:38;;;;;;;;;;;29.50;78.60;;;;;;2603272;54;20683;31
2022/05/11 13:53:16;;;;;;;;;;;29.50;78.40;;;;;;2603449;54;19935;31
2022/05/11 13:56:03;;;;;;;;;;;29.50;78.80;;;;;;2603831;54;19942;31
2022/05/11 13:58:41;;;;;;;;;;;29.50;79.10;;;;;;2604043;54;20766;31
2022/05/11 14:01:17;;;;;;;;;;;29.50;80.00;;;;;;2623035;46;20005;31
2022/05/11 14:03:54;;;;;;;;;;;29.50;79.00;;;;;;2604330;54;20749;31
2022/05/11 14:06:32;;;;;;;;;;;29.50;78.80;;;;;;2604378;54;19942;31
2022/05/11 14:09:15;;;;;;;;;;;29.50;79.40;;;;;;2604225;54;19943;31
2022/05/11 14:11:51;;;;;;;;;;;29.40;78.30;;;;;;2604422;54;20001;31
2022/05/11 14:14:25;;;;;;;;;;;29.40;78.80;;;;;;2604222;54;21518;31
2022/05/11 14:17:02;;;;;;;;;;;29.30;78.40;;;;;;2604283;54;19938;31
2022/05/11 14:19:49;;;;;;;;;;;29.30;77.80;;;;;;2623061;46;19934;31
2022/05/11 14:22:26;;;;;;;;;;;29.30;79.10;;;;;;2622735;46;19986;31
2022/05/11 14:25:02;;;;;;;;;;;29.30;78.60;;;;;;2617085;46;20192;31
2022/05/11 14:27:40;;;;;;;;;;;29.30;78.90;;;;;;2622886;46;19947;31
2022/05/11 14:30:15;;;;;;;;;;;29.20;78.80;;;;;;2604284;54;20008;31
2022/05/11 14:32:52;;;;;;;;;;;29.30;78.70;;;;;;2604523;54;19942;31
2022/05/11 14:35:27;;;;;;;;;;;29.30;79.30;;;;;;2604448;54;20787;31
2022/05/11 14:38:07;;;;;;;;;;;29.30;80.00;;;;;;2604143;54;20869;31
2022/05/11 14:40:49;;;;;;;;;;;29.20;79.70;;;;;;2604317;54;19941;31
2022/05/11 14:43:25;;;;;;;;;;;29.20;79.20;;;;;;2604238;54;19934;31
2022/05/11 14:46:01;;;;;;;;;;;29.10;78.90;;;;;;2622504;46;19950;31
2022/05/11 14:48:35;;;;;;;;;;;29.10;78.20;;;;;;2604248;54;20704;31
2022/05/11 14:51:15;;;;;;;;;;;29.10;78.20;;;;;;2604054;54;20765;31
2022/05/11 14:53:54;;;;;;;;;;;29.10;78.90;;;;;;2622896;46;20017;31
2022/05/11 14:56:30;;;;;;;;;;;29.10;79.50;;;;;;2604114;54;20778;31
2022/05/11 15:02:00;;;;;;;;;;;29.00;79.50;;;;;;2604245;54;20009;31
2022/05/11 15:04:44;;;;;;;;;;;29.00;78.20;;;;;;2622619;46;19935;31
2022/05/11 15:07:18;;;;;;;;;;;28.90;78.20;;;;;;2604283;54;20741;31
2022/05/11 15:09:58;;;;;;;;;;;28.90;78.60;;;;;;2603768;54;20079;31
2022/05/11 15:15:20;;;;;;;;;;;28.80;78.00;;;;;;2604171;54;19941;31
2022/05/11 15:17:57;;;;;;;;;;;28.80;76.60;;;;;;2622752;46;19934;31
2022/05/11 15:20:35;;;;;;;;;;;28.80;76.90;;;;;;2622854;46;20741;31
2022/05/11 15:23:09;;;;;;;;;;;28.80;77.50;;;;;;2622547;46;19935;31
2022/05/11 15:25:48;;;;;;;;;;;28.70;78.10;;;;;;2604233;54;19935;31
2022/05/11 15:28:25;;;;;;;;;;;28.80;79.10;;;;;;2604114;54;19934;31
2022/05/11 15:31:03;;;;;;;;;;;28.80;78.90;;;;;;2622750;46;20749;31
2022/05/11 15:33:39;;;;;;;;;;;28.80;79.40;;;;;;2604230;54;19941;31
2022/05/11 15:36:14;;;;;;;;;;;28.80;79.10;;;;;;2622408;46;20811;31
2022/05/11 15:38:50;;;;;;;;;;;28.80;78.60;;;;;;2604176;54;20025;31
2022/05/11 15:41:27;;;;;;;;;;;28.80;78.60;;;;;;2604070;54;19946;31
2022/05/11 15:44:01;;;;;;;;;;;28.70;78.30;;;;;;2604065;54;19935;31
2022/05/11 15:46:35;;;;;;;;;;;28.70;79.20;;;;;;2604274;54;19946;31
2022/05/11 15:49:08;;;;;;;;;;;28.70;79.80;;;;;;2622438;46;19935;31
2022/05/11 15:51:44;;;;;;;;;;;28.60;79.30;;;;;;2604087;54;20732;31
2022/05/11 15:54:19;;;;;;;;;;;28.60;78.80;;;;;;2622736;46;19935;31
2022/05/11 15:59:32;;;;;;;;;;;28.50;79.00;;;;;;2622604;46;19990;31
2022/05/11 16:02:06;;;;;;;;;;;28.40;78.70;;;;;;2603913;54;19957;31
2022/05/11 16:04:40;;;;;;;;;;;28.40;79.20;;;;;;2603931;54;19938;31
2022/05/11 16:07:15;;;;;;;;;;;28.30;78.90;;;;;;2622517;46;19938;31
2022/05/11 16:09:55;;;;;;;;;;;28.30;79.30;;;;;;2603848;54;19939;31
2022/05/11 16:12:29;;;;;;;;;;;28.20;79.50;;;;;;2604128;54;20836;31
2022/05/11 16:15:06;;;;;;;;;;;28.10;79.60;;;;;;2622224;46;19939;31
2022/05/11 16:20:25;;;;;;;;;;;28.10;80.20;;;;;;2702586;39;20935;31
2022/05/11 16:23:02;;;;;;;;;;;28.10;80.00;;;;;;2603878;54;19942;31
2022/05/11 16:25:39;;;;;;;;;;;28.00;79.90;;;;;;2604042;54;19935;31
2022/05/11 16:28:13;;;;;;;;;;;28.00;80.40;;;;;;2622337;46;19941;31
2022/05/11 16:30:48;;;;;;;;;;;28.00;80.10;;;;;;2622347;46;20737;31